createdAt,value
2022-08-20T00:00:25.396Z,98.30
2022-08-20T00:01:27.316Z,98.30
2022-08-20T00:02:29.272Z,98.20
2022-08-20T00:03:35.524Z,98.20
2022-08-20T00:04:39.529Z,98.30
2022-08-20T00:05:47.375Z,98.40
2022-08-20T00:06:49.299Z,98.30
2022-08-20T00:07:51.357Z,98.30
2022-08-20T00:08:53.233Z,98.30
2022-08-20T00:09:57.892Z,98.20
2022-08-20T00:11:00.399Z,98.10
2022-08-20T00:12:04.724Z,98.10
2022-08-20T00:13:11.209Z,98.20
2022-08-20T00:14:16.057Z,98.30
2022-08-20T00:15:21.826Z,98.30
2022-08-20T00:16:26.889Z,98.30
2022-08-20T00:17:35.627Z,98.30
2022-08-20T00:18:37.932Z,98.30
2022-08-20T00:19:39.873Z,98.20
2022-08-20T00:20:45.816Z,98.20
2022-08-20T00:21:47.597Z,98.20
2022-08-20T00:22:51.656Z,98.10
2022-08-20T00:23:54.926Z,98.10
2022-08-20T00:24:58.037Z,98.10
2022-08-20T00:25:59.857Z,98.10
2022-08-20T00:27:01.768Z,98.60
2022-08-20T00:28:07.280Z,98.00
2022-08-20T00:29:09.082Z,98.00
2022-08-20T00:30:14.924Z,98.00
2022-08-20T00:31:19.626Z,98.00
2022-08-20T00:32:21.658Z,98.00
2022-08-20T00:33:24.538Z,98.00
2022-08-20T00:34:26.691Z,98.00
2022-08-20T00:35:31.156Z,97.90
2022-08-20T00:36:33.179Z,97.80
2022-08-20T00:37:35.212Z,97.70
2022-08-20T00:38:38.780Z,97.80
2022-08-20T00:39:41.077Z,97.70
2022-08-20T00:40:49.057Z,97.90
2022-08-20T00:41:52.069Z,97.90
2022-08-20T00:42:58.281Z,98.00
2022-08-20T00:44:22.063Z,97.90
2022-08-20T00:45:27.130Z,97.80
2022-08-20T00:46:31.947Z,97.80
2022-08-20T00:47:34.277Z,97.80
2022-08-20T00:48:40.080Z,97.80
2022-08-20T00:49:42.152Z,97.80
2022-08-20T00:50:44.222Z,98.00
2022-08-20T00:51:57.808Z,98.10
2022-08-20T00:53:03.830Z,98.20
2022-08-20T00:54:25.340Z,98.30
2022-08-20T00:55:31.040Z,98.20
2022-08-20T00:56:34.818Z,98.20
2022-08-20T00:58:01.404Z,98.20
2022-08-20T00:59:11.639Z,98.20
2022-08-20T01:00:22.397Z,98.20
2022-08-20T01:01:24.516Z,98.20
2022-08-20T01:02:30.350Z,98.20
2022-08-20T01:03:34.079Z,98.10
2022-08-20T01:04:37.368Z,98.10
2022-08-20T01:05:45.037Z,98.10
2022-08-20T01:06:47.959Z,98.00
2022-08-20T01:07:53.831Z,98.00
2022-08-20T01:08:56.687Z,98.00
2022-08-20T01:10:06.969Z,98.10
2022-08-20T01:11:12.200Z,98.10
2022-08-20T01:12:16.264Z,98.10
2022-08-20T01:13:22.183Z,98.00
2022-08-20T01:14:36.193Z,97.80
2022-08-20T01:15:44.008Z,97.60
2022-08-20T01:16:49.319Z,97.60
2022-08-20T01:17:55.097Z,97.70
2022-08-20T01:19:01.088Z,97.80
2022-08-20T01:20:11.871Z,98.20
2022-08-20T01:21:14.199Z,97.60
2022-08-20T01:22:52.169Z,97.60
2022-08-20T01:24:08.998Z,97.60
2022-08-20T01:25:21.474Z,97.60
2022-08-20T01:26:32.587Z,97.60
2022-08-20T01:27:42.462Z,97.60
2022-08-20T01:28:55.841Z,97.60
2022-08-20T01:29:58.942Z,97.60
2022-08-20T01:31:00.949Z,97.70
2022-08-20T01:32:03.888Z,97.80
2022-08-20T01:33:06.516Z,97.90
2022-08-20T01:34:14.930Z,98.10
2022-08-20T01:35:21.633Z,98.20
2022-08-20T01:36:50.447Z,98.80
2022-08-20T01:37:52.893Z,98.30
2022-08-20T01:38:54.973Z,98.40
2022-08-20T01:39:57.029Z,98.40
2022-08-20T01:41:28.716Z,98.40
2022-08-20T01:42:37.952Z,98.30
2022-08-20T01:43:59.978Z,98.30
2022-08-20T01:45:04.227Z,98.30
2022-08-20T01:46:06.294Z,98.30
2022-08-20T01:47:27.594Z,98.20
2022-08-20T01:48:30.290Z,98.20
2022-08-20T01:49:35.391Z,98.10
2022-08-20T01:50:41.860Z,98.10
2022-08-20T01:51:44.029Z,98.10
2022-08-20T01:53:18.214Z,98.10
2022-08-20T01:54:21.091Z,98.10
2022-08-20T01:55:23.720Z,98.20
2022-08-20T01:56:29.377Z,98.10
2022-08-20T01:57:31.570Z,98.10
2022-08-20T01:58:37.606Z,98.10
2022-08-20T01:59:40.545Z,98.10
2022-08-20T02:00:43.022Z,98.10
2022-08-20T02:01:46.405Z,98.10
2022-08-20T02:02:49.541Z,98.00
2022-08-20T02:03:52.210Z,98.00
2022-08-20T02:04:54.499Z,98.10
2022-08-20T02:05:59.281Z,98.00
2022-08-20T02:07:12.587Z,97.90
2022-08-20T02:08:14.697Z,97.80
2022-08-20T02:09:16.605Z,97.80
2022-08-20T02:10:20.509Z,97.90
2022-08-20T02:11:24.068Z,98.10
2022-08-20T02:12:26.223Z,98.10
2022-08-20T02:13:28.014Z,98.00
2022-08-20T02:14:30.177Z,97.90
2022-08-20T02:15:37.144Z,97.90
2022-08-20T02:16:42.876Z,97.90
2022-08-20T02:17:45.089Z,97.90
2022-08-20T02:18:48.475Z,97.90
2022-08-20T02:20:01.165Z,98.00
2022-08-20T02:21:04.176Z,97.90
2022-08-20T02:22:49.237Z,97.90
2022-08-20T02:23:52.035Z,97.70
2022-08-20T02:24:53.911Z,97.80
2022-08-20T02:25:55.984Z,97.80
2022-08-20T02:26:57.811Z,97.90
2022-08-20T02:28:03.137Z,98.00
2022-08-20T02:29:10.529Z,97.90
2022-08-20T02:30:21.178Z,97.90
2022-08-20T02:31:34.200Z,98.10
2022-08-20T02:32:38.324Z,98.00
2022-08-20T02:33:40.115Z,98.00
2022-08-20T02:34:42.168Z,98.00
2022-08-20T02:35:48.448Z,97.90
2022-08-20T02:36:50.327Z,97.90
2022-08-20T02:37:53.874Z,97.90
2022-08-20T02:38:57.264Z,98.10
2022-08-20T02:39:59.567Z,98.20
2022-08-20T02:41:02.827Z,98.30
2022-08-20T02:42:05.314Z,98.30
2022-08-20T02:43:07.708Z,98.40
2022-08-20T02:44:09.842Z,98.30
2022-08-20T02:45:18.920Z,98.30
2022-08-20T02:46:21.021Z,98.20
2022-08-20T02:47:22.795Z,98.20
2022-08-20T02:48:24.936Z,98.20
2022-08-20T02:49:27.123Z,98.10
2022-08-20T02:50:29.060Z,98.00
2022-08-20T02:51:31.243Z,98.00
2022-08-20T02:52:33.282Z,97.90
2022-08-20T02:53:41.221Z,97.90
2022-08-20T02:54:44.726Z,98.00
2022-08-20T02:55:46.839Z,98.00
2022-08-20T02:56:48.732Z,97.90
2022-08-20T02:57:52.518Z,97.90
2022-08-20T02:58:56.367Z,98.00
2022-08-20T02:59:58.767Z,98.00
2022-08-20T03:01:01.460Z,98.10
2022-08-20T03:02:03.408Z,98.20
2022-08-20T03:03:10.522Z,98.20
2022-08-20T03:04:12.476Z,98.20
2022-08-20T03:05:14.924Z,98.20
2022-08-20T03:06:17.587Z,98.10
2022-08-20T03:07:19.554Z,98.10
2022-08-20T03:08:22.952Z,98.00
2022-08-20T03:09:25.320Z,97.90
2022-08-20T03:10:32.271Z,98.00
2022-08-20T03:11:34.956Z,98.00
2022-08-20T03:12:38.383Z,98.10
2022-08-20T03:13:40.263Z,98.00
2022-08-20T03:14:42.288Z,97.90
2022-08-20T03:15:51.852Z,97.90
2022-08-20T03:16:57.281Z,97.90
2022-08-20T03:17:59.286Z,97.80
2022-08-20T03:19:01.134Z,97.80
2022-08-20T03:20:06.189Z,97.80
2022-08-20T03:21:09.859Z,97.90
2022-08-20T03:22:11.920Z,98.00
2022-08-20T03:23:15.133Z,98.00
2022-08-20T03:24:17.255Z,98.00
2022-08-20T03:25:19.802Z,98.00
2022-08-20T03:26:21.884Z,98.00
2022-08-20T03:27:24.881Z,98.00
2022-08-20T03:28:32.069Z,97.90
2022-08-20T03:29:33.988Z,97.90
2022-08-20T03:30:37.499Z,97.70
2022-08-20T03:31:39.560Z,97.60
2022-08-20T03:32:42.291Z,97.40
2022-08-20T03:33:48.842Z,97.50
2022-08-20T03:34:55.643Z,97.60
2022-08-20T03:35:58.020Z,97.80
2022-08-20T03:36:59.859Z,97.80
2022-08-20T03:38:05.618Z,97.80
2022-08-20T03:39:11.836Z,97.90
2022-08-20T03:40:20.241Z,97.90
2022-08-20T03:41:22.268Z,97.90
2022-08-20T03:42:24.046Z,97.80
2022-08-20T03:43:25.978Z,97.80
2022-08-20T03:44:27.920Z,97.80
2022-08-20T03:45:30.060Z,97.70
2022-08-20T03:46:32.032Z,97.50
2022-08-20T03:47:33.931Z,97.50
2022-08-20T03:48:38.577Z,97.30
2022-08-20T03:49:40.375Z,97.30
2022-08-20T03:50:43.525Z,97.30
2022-08-20T03:51:57.139Z,97.20
2022-08-20T03:53:01.232Z,97.20
2022-08-20T03:54:03.489Z,97.30
2022-08-20T03:55:07.800Z,97.30
2022-08-20T03:56:09.898Z,97.30
2022-08-20T03:57:16.007Z,97.10
2022-08-20T03:58:18.059Z,97.20
2022-08-20T03:59:20.044Z,97.10
2022-08-20T04:00:33.291Z,97.10
2022-08-20T04:01:45.697Z,97.10
2022-08-20T04:02:48.409Z,97.20
2022-08-20T04:03:55.020Z,97.20
2022-08-20T04:04:57.232Z,97.40
2022-08-20T04:05:59.773Z,97.30
2022-08-20T04:07:10.450Z,97.40
2022-08-20T04:08:22.591Z,97.40
2022-08-20T04:09:24.719Z,97.50
2022-08-20T04:10:27.034Z,97.50
2022-08-20T04:11:28.852Z,97.50
2022-08-20T04:12:30.679Z,97.40
2022-08-20T04:13:32.685Z,97.30
2022-08-20T04:14:37.829Z,97.20
2022-08-20T04:15:41.932Z,97.10
2022-08-20T04:16:46.370Z,97.00
2022-08-20T04:17:51.020Z,97.00
2022-08-20T04:19:01.335Z,97.00
2022-08-20T04:20:06.786Z,97.20
2022-08-20T04:21:08.688Z,97.30
2022-08-20T04:22:13.624Z,97.30
2022-08-20T04:23:15.513Z,97.10
2022-08-20T04:24:22.757Z,97.10
2022-08-20T04:25:36.118Z,97.10
2022-08-20T04:26:38.030Z,97.20
2022-08-20T04:27:40.421Z,97.20
2022-08-20T04:28:42.555Z,97.60
2022-08-20T04:29:44.694Z,97.20
2022-08-20T04:30:47.563Z,97.10
2022-08-20T04:31:53.981Z,97.00
2022-08-20T04:32:56.286Z,97.10
2022-08-20T04:33:58.073Z,97.00
2022-08-20T04:35:00.928Z,97.00
2022-08-20T04:36:06.034Z,97.00
2022-08-20T04:37:16.832Z,97.10
2022-08-20T04:38:20.846Z,97.10
2022-08-20T04:39:22.742Z,97.20
2022-08-20T04:40:43.144Z,97.10
2022-08-20T04:41:45.376Z,97.10
2022-08-20T04:42:48.491Z,97.00
2022-08-20T04:43:56.258Z,97.00
2022-08-20T04:44:58.343Z,96.90
2022-08-20T04:46:02.966Z,97.00
2022-08-20T04:47:07.698Z,97.10
2022-08-20T04:48:14.748Z,97.10
2022-08-20T04:49:17.097Z,97.10
2022-08-20T04:50:20.876Z,97.10
2022-08-20T04:51:24.263Z,97.00
2022-08-20T04:52:28.209Z,97.00
2022-08-20T04:53:30.089Z,97.00
2022-08-20T04:54:32.478Z,97.00
2022-08-20T04:55:36.184Z,97.00
2022-08-20T04:56:39.880Z,97.00
2022-08-20T04:57:41.798Z,97.00
2022-08-20T04:58:47.823Z,96.90
2022-08-20T04:59:51.766Z,96.90
2022-08-20T05:00:57.268Z,96.70
2022-08-20T05:02:03.452Z,96.80
2022-08-20T05:03:07.302Z,96.80
2022-08-20T05:04:09.236Z,96.80
2022-08-20T05:05:11.628Z,96.90
2022-08-20T05:06:13.769Z,97.00
2022-08-20T05:07:19.188Z,97.00
2022-08-20T05:08:23.345Z,97.00
2022-08-20T05:09:25.338Z,97.00
2022-08-20T05:10:27.644Z,96.90
2022-08-20T05:11:35.375Z,97.00
2022-08-20T05:12:40.638Z,97.00
2022-08-20T05:13:42.945Z,97.00
2022-08-20T05:14:44.761Z,97.00
2022-08-20T05:15:48.754Z,96.90
2022-08-20T05:16:50.925Z,96.90
2022-08-20T05:18:00.661Z,96.90
2022-08-20T05:19:02.571Z,96.80
2022-08-20T05:20:08.332Z,96.80
2022-08-20T05:21:10.257Z,96.90
2022-08-20T05:22:12.084Z,96.90
2022-08-20T05:23:15.732Z,96.80
2022-08-20T05:24:17.682Z,96.90
2022-08-20T05:25:21.710Z,96.90
2022-08-20T05:26:26.596Z,96.90
2022-08-20T05:27:29.627Z,96.90
2022-08-20T05:28:32.941Z,96.90
2022-08-20T05:29:38.677Z,96.90
2022-08-20T05:30:43.116Z,96.90
2022-08-20T05:31:44.925Z,96.90
2022-08-20T05:32:48.789Z,96.80
2022-08-20T05:33:51.811Z,96.90
2022-08-20T05:34:55.066Z,96.90
2022-08-20T05:35:58.001Z,96.90
2022-08-20T05:37:03.824Z,96.90
2022-08-20T05:38:13.806Z,96.90
2022-08-20T05:39:18.351Z,97.30
2022-08-20T05:40:21.974Z,96.90
2022-08-20T05:41:27.534Z,96.90
2022-08-20T05:42:31.968Z,96.80
2022-08-20T05:43:33.822Z,96.80
2022-08-20T05:44:37.591Z,96.80
2022-08-20T05:45:41.811Z,96.90
2022-08-20T05:46:45.464Z,97.00
2022-08-20T05:47:48.444Z,96.90
2022-08-20T05:48:59.349Z,96.90
2022-08-20T05:50:05.256Z,96.90
2022-08-20T05:51:08.584Z,96.80
2022-08-20T05:52:12.387Z,96.80
2022-08-20T05:53:14.244Z,96.80
2022-08-20T05:54:17.716Z,96.80
2022-08-20T05:55:19.762Z,96.80
2022-08-20T05:56:26.698Z,96.80
2022-08-20T05:57:30.295Z,96.80
2022-08-20T05:58:32.990Z,96.90
2022-08-20T05:59:36.740Z,96.90
2022-08-20T06:00:38.641Z,96.90
2022-08-20T06:01:42.057Z,96.90
2022-08-20T06:03:02.438Z,97.00
2022-08-20T06:04:23.500Z,96.90
2022-08-20T06:05:26.099Z,96.90
2022-08-20T06:06:44.276Z,96.90
2022-08-20T06:07:50.638Z,96.90
2022-08-20T06:08:53.882Z,97.00
2022-08-20T06:09:55.832Z,97.00
2022-08-20T06:10:57.909Z,97.00
2022-08-20T06:12:06.151Z,97.00
2022-08-20T06:13:08.768Z,97.00
2022-08-20T06:14:16.738Z,97.00
2022-08-20T06:15:18.933Z,97.00
2022-08-20T06:16:20.727Z,97.00
2022-08-20T06:17:23.230Z,97.00
2022-08-20T06:18:27.793Z,97.00
2022-08-20T06:19:32.320Z,97.00
2022-08-20T06:20:37.580Z,97.00
2022-08-20T06:21:41.223Z,97.00
2022-08-20T06:22:43.205Z,97.00
2022-08-20T06:23:57.051Z,97.00
2022-08-20T06:25:01.815Z,97.10
2022-08-20T06:26:03.741Z,97.60
2022-08-20T06:27:06.808Z,97.10
2022-08-20T06:28:08.974Z,97.10
2022-08-20T06:29:10.776Z,97.00
2022-08-20T06:30:15.465Z,97.10
2022-08-20T06:31:17.423Z,97.10
2022-08-20T06:32:32.070Z,97.20
2022-08-20T06:33:34.883Z,97.20
2022-08-20T06:34:36.928Z,97.20
2022-08-20T06:35:39.578Z,97.60
2022-08-20T06:36:41.396Z,97.20
2022-08-20T06:37:43.592Z,97.20
2022-08-20T06:38:46.408Z,97.20
2022-08-20T06:39:48.370Z,97.20
2022-08-20T06:40:50.280Z,97.10
2022-08-20T06:41:52.198Z,97.10
2022-08-20T06:42:56.301Z,97.10
2022-08-20T06:43:58.588Z,97.10
2022-08-20T06:45:00.467Z,97.10
2022-08-20T06:46:02.365Z,97.10
2022-08-20T06:47:05.140Z,97.00
2022-08-20T06:48:10.325Z,97.00
2022-08-20T06:49:17.034Z,97.00
2022-08-20T06:50:22.210Z,97.00
2022-08-20T06:51:25.924Z,97.00
2022-08-20T06:52:52.130Z,97.00
2022-08-20T06:53:49.982Z,97.10
2022-08-20T06:54:51.888Z,97.00
2022-08-20T06:55:56.875Z,97.10
2022-08-20T06:56:58.736Z,96.90
2022-08-20T06:58:04.897Z,96.90
2022-08-20T06:59:08.252Z,96.80
2022-08-20T07:00:16.744Z,96.70
2022-08-20T07:01:21.016Z,96.60
2022-08-20T07:02:28.462Z,96.60
2022-08-20T07:03:32.359Z,96.50
2022-08-20T07:04:34.274Z,96.60
2022-08-20T07:05:38.859Z,96.50
2022-08-20T07:06:40.837Z,96.50
2022-08-20T07:07:47.657Z,96.40
2022-08-20T07:08:49.503Z,96.40
2022-08-20T07:09:58.600Z,96.50
2022-08-20T07:11:00.421Z,96.50
2022-08-20T07:12:02.345Z,96.50
2022-08-20T07:13:06.362Z,96.50
2022-08-20T07:14:08.233Z,96.50
2022-08-20T07:15:12.076Z,96.50
2022-08-20T07:16:13.830Z,96.50
2022-08-20T07:17:15.659Z,96.60
2022-08-20T07:18:18.106Z,96.60
2022-08-20T07:19:31.408Z,96.60
2022-08-20T07:20:35.671Z,96.50
2022-08-20T07:21:37.524Z,96.50
2022-08-20T07:22:39.669Z,96.50
2022-08-20T07:23:42.216Z,96.50
2022-08-20T07:24:48.936Z,96.50
2022-08-20T07:25:51.283Z,96.50
2022-08-20T07:26:53.323Z,96.40
2022-08-20T07:28:07.321Z,96.50
2022-08-20T07:29:09.137Z,96.50
2022-08-20T07:30:56.041Z,96.50
2022-08-20T07:32:17.813Z,96.60
2022-08-20T07:33:29.116Z,96.50
2022-08-20T07:34:31.463Z,96.50
2022-08-20T07:35:33.735Z,96.50
2022-08-20T07:36:35.682Z,96.50
2022-08-20T07:37:39.671Z,96.50
2022-08-20T07:38:41.654Z,96.20
2022-08-20T07:39:43.657Z,96.00
2022-08-20T07:40:48.833Z,95.90
2022-08-20T07:42:03.109Z,95.80
2022-08-20T07:43:04.990Z,95.70
2022-08-20T07:44:06.823Z,95.80
2022-08-20T07:45:11.740Z,95.50
2022-08-20T07:46:15.615Z,95.50
2022-08-20T07:47:20.190Z,95.50
2022-08-20T07:48:31.109Z,95.10
2022-08-20T07:49:40.470Z,95.30
2022-08-20T07:50:43.151Z,95.50
2022-08-20T07:51:45.031Z,95.40
2022-08-20T07:52:47.096Z,95.80
2022-08-20T07:53:50.701Z,95.70
2022-08-20T07:54:52.716Z,95.60
2022-08-20T07:55:58.900Z,95.30
2022-08-20T07:57:04.588Z,95.30
2022-08-20T07:58:12.191Z,95.30
2022-08-20T07:59:16.777Z,95.30
2022-08-20T08:00:21.607Z,95.20
2022-08-20T08:01:28.571Z,95.10
2022-08-20T08:02:30.634Z,94.90
2022-08-20T08:03:39.913Z,95.00
2022-08-20T08:04:52.052Z,95.00
2022-08-20T08:05:54.546Z,95.00
2022-08-20T08:07:00.080Z,94.80
2022-08-20T08:08:07.146Z,94.80
2022-08-20T08:09:13.823Z,94.80
2022-08-20T08:10:20.044Z,94.20
2022-08-20T08:11:22.085Z,94.40
2022-08-20T08:12:26.852Z,94.10
2022-08-20T08:13:33.407Z,94.40
2022-08-20T08:14:35.489Z,94.30
2022-08-20T08:15:40.865Z,94.00
2022-08-20T08:16:45.266Z,93.90
2022-08-20T08:17:49.302Z,93.90
2022-08-20T08:18:56.554Z,93.40
2022-08-20T08:19:59.298Z,93.80
2022-08-20T08:21:01.224Z,93.70
2022-08-20T08:22:03.648Z,93.10
2022-08-20T08:23:05.642Z,92.60
2022-08-20T08:24:07.618Z,92.90
2022-08-20T08:25:14.111Z,92.70
2022-08-20T08:26:18.973Z,92.80
2022-08-20T08:27:22.304Z,92.80
2022-08-20T08:28:25.282Z,92.90
2022-08-20T08:29:27.135Z,93.00
2022-08-20T08:30:29.109Z,92.50
2022-08-20T08:31:31.113Z,92.70
2022-08-20T08:32:34.855Z,92.80
2022-08-20T08:33:37.061Z,93.00
2022-08-20T08:34:39.415Z,93.10
2022-08-20T08:35:46.187Z,92.90
2022-08-20T08:36:48.177Z,92.50
2022-08-20T08:37:49.970Z,92.70
2022-08-20T08:38:51.749Z,92.30
2022-08-20T08:39:53.640Z,91.70
2022-08-20T08:41:00.300Z,91.30
2022-08-20T08:42:05.224Z,91.50
2022-08-20T08:43:07.413Z,91.60
2022-08-20T08:44:14.233Z,91.60
2022-08-20T08:45:18.655Z,90.70
2022-08-20T08:46:27.502Z,90.80
2022-08-20T08:47:34.623Z,90.90
2022-08-20T08:48:43.149Z,91.10
2022-08-20T08:49:47.369Z,90.80
2022-08-20T08:50:54.370Z,90.80
2022-08-20T08:52:04.418Z,90.20
2022-08-20T08:53:08.544Z,90.30
2022-08-20T08:54:22.239Z,88.70
2022-08-20T08:55:25.615Z,88.80
2022-08-20T08:56:30.440Z,86.30
2022-08-20T08:57:32.739Z,84.20
2022-08-20T08:58:35.348Z,86.30
2022-08-20T08:59:58.301Z,85.90
2022-08-20T09:01:03.926Z,82.60
2022-08-20T09:02:08.260Z,85.30
2022-08-20T09:03:15.595Z,84.00
2022-08-20T09:04:22.075Z,84.40
2022-08-20T09:05:31.944Z,80.10
2022-08-20T09:06:34.968Z,81.30
2022-08-20T09:07:37.948Z,82.40
2022-08-20T09:08:48.177Z,77.20
2022-08-20T09:09:51.094Z,78.70
2022-08-20T09:10:55.037Z,75.60
2022-08-20T09:12:07.591Z,71.30
2022-08-20T09:13:11.425Z,70.50
2022-08-20T09:14:13.893Z,71.50
2022-08-20T09:15:16.833Z,71.40
2022-08-20T09:16:18.783Z,72.50
2022-08-20T09:17:23.063Z,71.10
2022-08-20T09:18:27.004Z,69.80
2022-08-20T09:19:29.066Z,70.20
2022-08-20T09:20:31.920Z,69.30
2022-08-20T09:21:34.169Z,64.40
2022-08-20T09:22:36.515Z,61.70
2022-08-20T09:23:39.028Z,58.20
2022-08-20T09:24:44.020Z,56.70
2022-08-20T09:25:46.138Z,54.40
2022-08-20T09:26:49.289Z,52.00
2022-08-20T09:27:51.537Z,53.70
2022-08-20T09:28:54.466Z,53.40
2022-08-20T09:29:56.474Z,53.80
2022-08-20T09:30:58.778Z,55.60
2022-08-20T09:32:23.709Z,57.00
2022-08-20T09:33:27.654Z,56.60
2022-08-20T09:34:32.001Z,53.30
2022-08-20T09:35:34.625Z,52.00
2022-08-20T09:36:36.614Z,54.20
2022-08-20T09:37:39.071Z,54.60
2022-08-20T09:38:44.779Z,51.60
2022-08-20T09:39:48.358Z,47.30
2022-08-20T09:40:50.621Z,50.10
2022-08-20T09:41:52.640Z,50.40
2022-08-20T09:42:54.897Z,51.10
2022-08-20T09:43:58.128Z,50.40
2022-08-20T09:45:03.072Z,50.80
2022-08-20T09:46:09.714Z,50.70
2022-08-20T09:47:12.933Z,49.50
2022-08-20T09:48:15.031Z,45.60
2022-08-20T09:49:18.018Z,46.70
2022-08-20T09:50:20.518Z,47.20
2022-08-20T09:51:29.298Z,47.00
2022-08-20T09:52:41.505Z,43.30
2022-08-20T09:53:48.947Z,44.00
2022-08-20T09:54:54.945Z,45.40
2022-08-20T09:55:57.814Z,45.40
2022-08-20T09:57:06.929Z,44.20
2022-08-20T09:58:25.548Z,39.70
2022-08-20T09:59:30.124Z,42.30
2022-08-20T10:00:35.803Z,39.10
2022-08-20T10:01:41.705Z,38.10
2022-08-20T10:02:44.534Z,39.30
2022-08-20T10:03:48.997Z,38.10
2022-08-20T10:04:51.827Z,32.50
2022-08-20T10:05:54.596Z,34.30
2022-08-20T10:06:58.133Z,35.30
2022-08-20T10:08:00.210Z,34.80
2022-08-20T10:09:03.860Z,35.40
2022-08-20T10:10:10.491Z,32.40
2022-08-20T10:11:14.091Z,30.30
2022-08-20T10:12:17.254Z,29.80
2022-08-20T10:13:24.896Z,33.00
2022-08-20T10:14:34.548Z,31.80
2022-08-20T10:15:36.784Z,29.50
2022-08-20T10:16:39.253Z,30.90
2022-08-20T10:17:43.280Z,29.20
2022-08-20T10:18:46.800Z,30.50
2022-08-20T10:19:56.381Z,29.40
2022-08-20T10:20:59.613Z,30.50
2022-08-20T10:22:02.195Z,30.00
2022-08-20T10:23:05.013Z,29.60
2022-08-20T10:24:10.799Z,29.50
2022-08-20T10:25:15.361Z,27.20
2022-08-20T10:26:17.501Z,29.10
2022-08-20T10:27:21.251Z,27.90
2022-08-20T10:28:23.410Z,29.30
2022-08-20T10:29:29.272Z,28.30
2022-08-20T10:30:34.278Z,26.10
2022-08-20T10:31:36.444Z,28.00
2022-08-20T10:32:41.670Z,29.10
2022-08-20T10:33:51.410Z,27.10
2022-08-20T10:34:54.458Z,28.60
2022-08-20T10:35:59.893Z,27.80
2022-08-20T10:37:02.246Z,27.80
2022-08-20T10:38:04.325Z,27.10
2022-08-20T10:39:07.504Z,26.60
2022-08-20T10:40:10.461Z,25.30
2022-08-20T10:41:16.631Z,25.10
2022-08-20T10:42:19.370Z,25.80
2022-08-20T10:43:22.881Z,25.00
2022-08-20T10:44:25.989Z,26.10
2022-08-20T10:45:30.619Z,27.10
2022-08-20T10:46:33.698Z,27.50
2022-08-20T10:47:35.821Z,25.40
2022-08-20T10:48:38.669Z,24.40
2022-08-20T10:49:40.542Z,26.10
2022-08-20T10:50:42.558Z,26.10
2022-08-20T10:51:44.490Z,27.40
2022-08-20T10:52:47.165Z,26.50
2022-08-20T10:53:50.016Z,26.80
2022-08-20T10:54:54.180Z,24.90
2022-08-20T10:55:57.850Z,24.90
2022-08-20T10:57:04.905Z,24.90
2022-08-20T10:58:08.432Z,24.60
2022-08-20T10:59:13.581Z,24.60
2022-08-20T11:00:19.314Z,24.40
2022-08-20T11:01:32.949Z,23.10
2022-08-20T11:02:37.947Z,24.30
2022-08-20T11:03:42.110Z,24.00
2022-08-20T11:04:45.431Z,23.70
2022-08-20T11:05:47.613Z,25.00
2022-08-20T11:06:51.184Z,24.60
2022-08-20T11:08:08.552Z,25.90
2022-08-20T11:09:11.715Z,24.30
2022-08-20T11:10:14.076Z,25.00
2022-08-20T11:11:16.330Z,25.30
2022-08-20T11:12:20.063Z,25.50
2022-08-20T11:13:23.028Z,25.00
2022-08-20T11:14:26.034Z,25.80
2022-08-20T11:15:29.389Z,27.10
2022-08-20T11:16:31.575Z,26.40
2022-08-20T11:17:37.122Z,26.20
2022-08-20T11:18:40.977Z,24.70
2022-08-20T11:19:46.954Z,24.90
2022-08-20T11:20:49.897Z,24.60
2022-08-20T11:21:52.029Z,23.70
2022-08-20T11:22:55.042Z,25.50
2022-08-20T11:23:58.867Z,23.20
2022-08-20T11:25:06.221Z,24.20
2022-08-20T11:26:08.479Z,26.00
2022-08-20T11:27:14.582Z,27.70
2022-08-20T11:28:16.956Z,26.20
2022-08-20T11:29:34.440Z,26.90
2022-08-20T11:30:37.687Z,27.80
2022-08-20T11:31:40.133Z,26.40
2022-08-20T11:32:47.684Z,28.30
2022-08-20T11:33:50.271Z,26.50
2022-08-20T11:34:55.064Z,27.40
2022-08-20T11:35:57.004Z,28.20
2022-08-20T11:37:01.389Z,29.50
2022-08-20T11:38:04.436Z,28.30
2022-08-20T11:39:07.135Z,30.60
2022-08-20T11:40:14.096Z,29.80
2022-08-20T11:41:16.214Z,32.90
2022-08-20T11:42:18.748Z,31.00
2022-08-20T11:43:20.854Z,32.20
2022-08-20T11:44:23.000Z,30.90
2022-08-20T11:45:24.887Z,32.80
2022-08-20T11:46:28.704Z,34.40
2022-08-20T11:47:31.087Z,35.60
2022-08-20T11:48:32.922Z,34.90
2022-08-20T11:49:37.039Z,34.20
2022-08-20T11:50:38.954Z,36.50
2022-08-20T11:51:49.871Z,37.30
2022-08-20T11:52:52.193Z,38.70
2022-08-20T11:53:54.170Z,40.20
2022-08-20T11:54:58.026Z,41.30
2022-08-20T11:56:00.392Z,40.10
2022-08-20T11:57:02.429Z,40.60
2022-08-20T11:58:04.702Z,41.50
2022-08-20T11:59:06.758Z,40.90
2022-08-20T12:00:13.984Z,41.10
2022-08-20T12:01:15.920Z,39.40
2022-08-20T12:02:17.845Z,42.40
2022-08-20T12:03:19.697Z,42.40
2022-08-20T12:04:21.979Z,40.80
2022-08-20T12:05:29.638Z,40.10
2022-08-20T12:06:33.097Z,39.70
2022-08-20T12:07:35.033Z,39.40
2022-08-20T12:08:38.467Z,40.80
2022-08-20T12:09:50.288Z,41.30
2022-08-20T12:10:53.293Z,43.90
2022-08-20T12:11:55.090Z,44.80
2022-08-20T12:12:57.104Z,43.00
2022-08-20T12:13:59.392Z,42.40
2022-08-20T12:15:01.389Z,42.30
2022-08-20T12:16:05.074Z,43.30
2022-08-20T12:17:15.228Z,42.50
2022-08-20T12:18:17.250Z,46.70
2022-08-20T12:19:19.061Z,47.50
2022-08-20T12:20:21.082Z,49.20
2022-08-20T12:21:23.156Z,48.20
2022-08-20T12:22:25.681Z,48.60
2022-08-20T12:23:27.680Z,48.20
2022-08-20T12:24:29.602Z,48.10
2022-08-20T12:25:31.495Z,48.60
2022-08-20T12:26:33.378Z,49.80
2022-08-20T12:27:37.718Z,48.20
2022-08-20T12:28:40.080Z,45.80
2022-08-20T12:29:43.553Z,46.10
2022-08-20T12:30:45.761Z,47.50
2022-08-20T12:31:47.769Z,45.60
2022-08-20T12:32:50.086Z,45.20
2022-08-20T12:33:51.923Z,44.80
2022-08-20T12:34:54.403Z,44.80
2022-08-20T12:35:58.095Z,47.40
2022-08-20T12:37:05.318Z,46.60
2022-08-20T12:38:07.223Z,46.60
2022-08-20T12:39:09.470Z,44.30
2022-08-20T12:40:16.284Z,44.50
2022-08-20T12:41:18.441Z,44.80
2022-08-20T12:42:21.416Z,45.00
2022-08-20T12:43:25.141Z,46.70
2022-08-20T12:44:27.238Z,47.70
2022-08-20T12:45:29.824Z,48.40
2022-08-20T12:46:31.767Z,47.80
2022-08-20T12:47:36.981Z,48.30
2022-08-20T12:48:38.957Z,45.90
2022-08-20T12:49:43.150Z,46.30
2022-08-20T12:50:46.235Z,45.00
2022-08-20T12:51:48.061Z,47.20
2022-08-20T12:52:51.147Z,45.60
2022-08-20T12:53:56.067Z,44.90
2022-08-20T12:54:58.808Z,44.30
2022-08-20T12:56:02.651Z,44.00
2022-08-20T12:57:07.990Z,47.30
2022-08-20T12:58:11.108Z,48.20
2022-08-20T12:59:13.144Z,47.20
2022-08-20T13:00:20.673Z,46.20
2022-08-20T13:01:23.805Z,47.50
2022-08-20T13:02:25.809Z,46.70
2022-08-20T13:03:27.584Z,47.30
2022-08-20T13:04:34.045Z,47.50
2022-08-20T13:05:36.719Z,48.00
2022-08-20T13:06:38.651Z,47.90
2022-08-20T13:07:42.177Z,45.30
2022-08-20T13:08:44.005Z,45.10
2022-08-20T13:09:46.012Z,45.40
2022-08-20T13:10:48.349Z,45.10
2022-08-20T13:11:50.164Z,45.00
2022-08-20T13:12:52.072Z,45.70
2022-08-20T13:13:53.856Z,45.60
2022-08-20T13:14:55.679Z,45.10
2022-08-20T13:15:57.495Z,45.90
2022-08-20T13:17:01.126Z,45.60
2022-08-20T13:18:05.484Z,44.50
2022-08-20T13:19:07.316Z,45.00
2022-08-20T13:20:12.978Z,46.60
2022-08-20T13:21:16.024Z,48.60
2022-08-20T13:22:22.696Z,48.20
2022-08-20T13:23:24.610Z,48.10
2022-08-20T13:24:26.861Z,48.60
2022-08-20T13:25:28.907Z,49.50
2022-08-20T13:26:31.229Z,49.50
2022-08-20T13:27:33.133Z,50.80
2022-08-20T13:28:35.149Z,47.80
2022-08-20T13:29:37.460Z,46.80
2022-08-20T13:30:41.090Z,48.30
2022-08-20T13:31:43.314Z,49.10
2022-08-20T13:32:47.126Z,47.80
2022-08-20T13:33:49.128Z,49.80
2022-08-20T13:34:51.608Z,48.00
2022-08-20T13:35:53.507Z,49.40
2022-08-20T13:36:55.494Z,51.00
2022-08-20T13:37:57.521Z,49.60
2022-08-20T13:39:00.067Z,49.30
2022-08-20T13:40:02.604Z,50.60
2022-08-20T13:41:04.617Z,49.80
2022-08-20T13:42:07.680Z,48.40
2022-08-20T13:43:12.106Z,48.90
2022-08-20T13:44:14.216Z,49.30
2022-08-20T13:45:16.022Z,48.00
2022-08-20T13:46:18.184Z,48.20
2022-08-20T13:47:29.050Z,47.60
2022-08-20T13:48:30.903Z,48.90
2022-08-20T13:49:34.104Z,50.40
2022-08-20T13:50:36.833Z,51.20
2022-08-20T13:51:41.011Z,50.30
2022-08-20T13:52:43.737Z,49.60